San Antonio, Texas
Traffic Map
Current Weather Conditions
San Antonio, Texas
Clear
Clear
32°
Feels Like: 32°
Wind Chill: 32° Ceiling: Unl
Heat Index: 32° Visibility: 10mi
Dew Point: 13° Wind: 13mph
Humidity: 32% Direction: 80° (E)
Pressure: 30.01in Gusts: 0mph
Raw Report DataKSKF 232158Z AUTO 08011KT 10SM CLR 32/13 A3001 RMK AO2 SLP154 T03200133 $
Traffic Incident Summary
Active as of:
Severity:
Category:
InformationThere was an issue retrieving the traffic information for this location. Please try a different location or try again shortly.
Advertisements
Track Severe Weather on mobile